sensor_id;sensor_type;location;lat;lon;timestamp;temperature;humidity
16253;DHT22;8234;41.480;2.306;2023-02-10T00:08:16;6.80;99.90
16253;DHT22;8234;41.480;2.306;2023-02-10T00:18:21;7.00;99.90
16253;DHT22;8234;41.480;2.306;2023-02-10T00:28:24;7.00;99.90
16253;DHT22;8234;41.480;2.306;2023-02-10T00:38:30;7.00;99.90
16253;DHT22;8234;41.480;2.306;2023-02-10T00:48:34;6.90;99.90
16253;DHT22;8234;41.480;2.306;2023-02-10T00:58:39;7.00;99.90
16253;DHT22;8234;41.480;2.306;2023-02-10T01:08:43;7.00;99.90
16253;DHT22;8234;41.480;2.306;2023-02-10T01:18:48;7.00;99.90
16253;DHT22;8234;41.480;2.306;2023-02-10T01:28:52;7.00;99.90
16253;DHT22;8234;41.480;2.306;2023-02-10T01:38:57;6.90;99.90
16253;DHT22;8234;41.480;2.306;2023-02-10T01:49:05;6.80;99.90
16253;DHT22;8234;41.480;2.306;2023-02-10T01:59:12;6.60;99.90
16253;DHT22;8234;41.480;2.306;2023-02-10T02:09:17;6.70;99.90
16253;DHT22;8234;41.480;2.306;2023-02-10T02:30:08;7.00;99.90
16253;DHT22;8234;41.480;2.306;2023-02-10T02:40:17;7.00;99.90
16253;DHT22;8234;41.480;2.306;2023-02-10T02:50:26;6.90;99.90
16253;DHT22;8234;41.480;2.306;2023-02-10T03:00:33;6.80;99.90
16253;DHT22;8234;41.480;2.306;2023-02-10T03:10:37;6.80;99.90
16253;DHT22;8234;41.480;2.306;2023-02-10T03:20:42;6.70;99.90
16253;DHT22;8234;41.480;2.306;2023-02-10T03:30:47;6.60;99.90
16253;DHT22;8234;41.480;2.306;2023-02-10T03:40:53;6.60;99.90
16253;DHT22;8234;41.480;2.306;2023-02-10T03:50:57;6.40;99.90
16253;DHT22;8234;41.480;2.306;2023-02-10T04:01:09;6.40;99.90
16253;DHT22;8234;41.480;2.306;2023-02-10T04:11:14;6.20;99.90
16253;DHT22;8234;41.480;2.306;2023-02-10T04:21:19;6.10;99.90
16253;DHT22;8234;41.480;2.306;2023-02-10T04:31:23;6.10;99.90
16253;DHT22;8234;41.480;2.306;2023-02-10T04:41:28;6.20;99.90
16253;DHT22;8234;41.480;2.306;2023-02-10T04:51:32;6.20;99.90
16253;DHT22;8234;41.480;2.306;2023-02-10T05:01:38;5.90;99.90
16253;DHT22;8234;41.480;2.306;2023-02-10T05:11:42;6.10;99.90
16253;DHT22;8234;41.480;2.306;2023-02-10T05:21:47;5.80;99.90
16253;DHT22;8234;41.480;2.306;2023-02-10T05:31:51;5.70;99.90
16253;DHT22;8234;41.480;2.306;2023-02-10T05:41:57;5.60;99.90
16253;DHT22;8234;41.480;2.306;2023-02-10T05:52:01;5.80;99.90
16253;DHT22;8234;41.480;2.306;2023-02-10T06:02:06;5.80;99.90
16253;DHT22;8234;41.480;2.306;2023-02-10T06:12:10;5.60;99.90
16253;DHT22;8234;41.480;2.306;2023-02-10T06:22:15;5.50;99.90
16253;DHT22;8234;41.480;2.306;2023-02-10T06:32:19;5.40;99.90
16253;DHT22;8234;41.480;2.306;2023-02-10T06:42:24;5.40;99.90
16253;DHT22;8234;41.480;2.306;2023-02-10T06:52:28;5.50;99.90
16253;DHT22;8234;41.480;2.306;2023-02-10T07:02:36;5.50;99.90
16253;DHT22;8234;41.480;2.306;2023-02-10T07:12:40;5.60;99.90
16253;DHT22;8234;41.480;2.306;2023-02-10T07:22:45;5.60;99.90
16253;DHT22;8234;41.480;2.306;2023-02-10T07:32:49;5.60;99.90
16253;DHT22;8234;41.480;2.306;2023-02-10T07:42:54;6.20;99.90
16253;DHT22;8234;41.480;2.306;2023-02-10T07:52:58;6.50;99.90
16253;DHT22;8234;41.480;2.306;2023-02-10T08:03:04;7.00;99.90
16253;DHT22;8234;41.480;2.306;2023-02-10T08:13:08;7.20;99.90
16253;DHT22;8234;41.480;2.306;2023-02-10T08:23:15;7.40;99.90
16253;DHT22;8234;41.480;2.306;2023-02-10T08:33:19;7.40;99.90
16253;DHT22;8234;41.480;2.306;2023-02-10T08:43:24;7.50;99.90
16253;DHT22;8234;41.480;2.306;2023-02-10T08:53:29;8.00;99.90
16253;DHT22;8234;41.480;2.306;2023-02-10T09:03:34;8.40;99.90
16253;DHT22;8234;41.480;2.306;2023-02-10T09:13:39;9.00;99.90
16253;DHT22;8234;41.480;2.306;2023-02-10T09:23:44;9.60;99.90
16253;DHT22;8234;41.480;2.306;2023-02-10T09:33:47;10.40;99.90
16253;DHT22;8234;41.480;2.306;2023-02-10T09:44:08;10.70;99.90
16253;DHT22;8234;41.480;2.306;2023-02-10T09:54:14;10.80;99.90
16253;DHT22;8234;41.480;2.306;2023-02-10T10:04:22;11.00;99.90
16253;DHT22;8234;41.480;2.306;2023-02-10T10:14:27;11.20;99.90
16253;DHT22;8234;41.480;2.306;2023-02-10T10:24:46;11.50;99.90
16253;DHT22;8234;41.480;2.306;2023-02-10T10:34:53;11.90;99.90
16253;DHT22;8234;41.480;2.306;2023-02-10T10:45:03;12.40;99.90
16253;DHT22;8234;41.480;2.306;2023-02-10T10:55:13;12.70;99.90
16253;DHT22;8234;41.480;2.306;2023-02-10T11:05:21;13.00;99.90
16253;DHT22;8234;41.480;2.306;2023-02-10T11:15:37;13.80;99.90
16253;DHT22;8234;41.480;2.306;2023-02-10T11:25:46;14.40;99.90
16253;DHT22;8234;41.480;2.306;2023-02-10T11:35:54;14.80;99.90
16253;DHT22;8234;41.480;2.306;2023-02-10T11:46:02;15.10;99.90
16253;DHT22;8234;41.480;2.306;2023-02-10T11:56:13;15.30;99.90
16253;DHT22;8234;41.480;2.306;2023-02-10T12:06:27;15.60;99.90
16253;DHT22;8234;41.480;2.306;2023-02-10T12:16:45;15.80;99.90
16253;DHT22;8234;41.480;2.306;2023-02-10T12:26:54;16.00;99.90
16253;DHT22;8234;41.480;2.306;2023-02-10T12:37:09;16.40;99.90
16253;DHT22;8234;41.480;2.306;2023-02-10T12:47:26;17.00;99.90
16253;DHT22;8234;41.480;2.306;2023-02-10T12:57:39;17.10;99.90
16253;DHT22;8234;41.480;2.306;2023-02-10T13:07:50;17.00;99.90
16253;DHT22;8234;41.480;2.306;2023-02-10T13:17:54;17.20;99.90
16253;DHT22;8234;41.480;2.306;2023-02-10T13:28:08;17.60;99.90
16253;DHT22;8234;41.480;2.306;2023-02-10T13:38:17;17.40;99.90
16253;DHT22;8234;41.480;2.306;2023-02-10T13:48:25;17.40;99.90
16253;DHT22;8234;41.480;2.306;2023-02-10T13:58:33;17.70;99.90
16253;DHT22;8234;41.480;2.306;2023-02-10T14:08:41;18.80;99.90
16253;DHT22;8234;41.480;2.306;2023-02-10T14:19:02;18.90;99.90
16253;DHT22;8234;41.480;2.306;2023-02-10T14:29:12;18.80;99.90
16253;DHT22;8234;41.480;2.306;2023-02-10T14:39:20;18.60;99.90
16253;DHT22;8234;41.480;2.306;2023-02-10T14:49:26;19.10;99.90
16253;DHT22;8234;41.480;2.306;2023-02-10T14:59:34;19.30;99.90
16253;DHT22;8234;41.480;2.306;2023-02-10T15:09:39;19.00;99.90
16253;DHT22;8234;41.480;2.306;2023-02-10T15:19:56;19.50;99.90
16253;DHT22;8234;41.480;2.306;2023-02-10T15:30:07;18.30;99.90
16253;DHT22;8234;41.480;2.306;2023-02-10T15:40:17;18.10;99.90
16253;DHT22;8234;41.480;2.306;2023-02-10T15:50:23;16.80;99.90
16253;DHT22;8234;41.480;2.306;2023-02-10T16:00:29;15.70;99.90
16253;DHT22;8234;41.480;2.306;2023-02-10T16:10:35;15.40;99.90
16253;DHT22;8234;41.480;2.306;2023-02-10T16:20:39;15.60;99.90
16253;DHT22;8234;41.480;2.306;2023-02-10T16:30:45;14.70;99.90
16253;DHT22;8234;41.480;2.306;2023-02-10T16:40:49;13.40;99.90
16253;DHT22;8234;41.480;2.306;2023-02-10T16:50:54;12.60;99.90
16253;DHT22;8234;41.480;2.306;2023-02-10T17:00:58;12.30;99.90
16253;DHT22;8234;41.480;2.306;2023-02-10T17:11:04;11.70;99.90
16253;DHT22;8234;41.480;2.306;2023-02-10T17:21:08;11.60;99.90
16253;DHT22;8234;41.480;2.306;2023-02-10T17:31:15;11.40;99.90
16253;DHT22;8234;41.480;2.306;2023-02-10T17:41:21;11.30;99.90
16253;DHT22;8234;41.480;2.306;2023-02-10T17:51:27;11.20;99.90
16253;DHT22;8234;41.480;2.306;2023-02-10T18:01:31;11.10;99.90
16253;DHT22;8234;41.480;2.306;2023-02-10T18:11:36;10.10;99.90
16253;DHT22;8234;41.480;2.306;2023-02-10T18:21:41;9.70;99.90
16253;DHT22;8234;41.480;2.306;2023-02-10T18:31:46;9.20;99.90
16253;DHT22;8234;41.480;2.306;2023-02-10T18:41:51;9.00;99.90
16253;DHT22;8234;41.480;2.306;2023-02-10T18:51:56;8.80;99.90
16253;DHT22;8234;41.480;2.306;2023-02-10T19:02:00;8.50;99.90
16253;DHT22;8234;41.480;2.306;2023-02-10T19:12:06;8.40;99.90
16253;DHT22;8234;41.480;2.306;2023-02-10T19:22:10;8.30;99.90
16253;DHT22;8234;41.480;2.306;2023-02-10T19:32:15;7.80;99.90
16253;DHT22;8234;41.480;2.306;2023-02-10T19:42:20;7.80;99.90
16253;DHT22;8234;41.480;2.306;2023-02-10T19:52:25;7.80;99.90
16253;DHT22;8234;41.480;2.306;2023-02-10T20:02:29;7.50;99.90
16253;DHT22;8234;41.480;2.306;2023-02-10T20:12:34;7.20;99.90
16253;DHT22;8234;41.480;2.306;2023-02-10T20:22:38;7.50;99.90
16253;DHT22;8234;41.480;2.306;2023-02-10T20:32:44;7.30;99.90
16253;DHT22;8234;41.480;2.306;2023-02-10T20:42:48;7.00;99.90
16253;DHT22;8234;41.480;2.306;2023-02-10T20:52:58;6.90;99.90
16253;DHT22;8234;41.480;2.306;2023-02-10T21:03:02;7.00;99.90
16253;DHT22;8234;41.480;2.306;2023-02-10T21:13:08;7.40;99.90
16253;DHT22;8234;41.480;2.306;2023-02-10T21:23:12;7.70;99.90
16253;DHT22;8234;41.480;2.306;2023-02-10T21:33:18;7.80;99.90
16253;DHT22;8234;41.480;2.306;2023-02-10T21:43:24;7.80;99.90
16253;DHT22;8234;41.480;2.306;2023-02-10T21:53:29;7.90;99.90
16253;DHT22;8234;41.480;2.306;2023-02-10T22:03:33;7.70;99.90
16253;DHT22;8234;41.480;2.306;2023-02-10T22:13:40;7.50;99.90
16253;DHT22;8234;41.480;2.306;2023-02-10T22:23:45;7.50;99.90
16253;DHT22;8234;41.480;2.306;2023-02-10T22:33:52;7.50;99.90
16253;DHT22;8234;41.480;2.306;2023-02-10T22:43:56;7.40;99.90
16253;DHT22;8234;41.480;2.306;2023-02-10T22:54:03;7.30;99.90
16253;DHT22;8234;41.480;2.306;2023-02-10T23:04:09;7.30;99.90
16253;DHT22;8234;41.480;2.306;2023-02-10T23:14:15;7.30;99.90
16253;DHT22;8234;41.480;2.306;2023-02-10T23:24:19;7.20;99.90
16253;DHT22;8234;41.480;2.306;2023-02-10T23:34:24;7.10;99.90
16253;DHT22;8234;41.480;2.306;2023-02-10T23:44:28;7.10;99.90
16253;DHT22;8234;41.480;2.306;2023-02-10T23:54:33;7.00;99.90
